sensor_id;sensor_type;location;lat;lon;timestamp;P1;durP1;ratioP1;P2;durP2;ratioP2
52894;SDS011;38759;53.396;6.722;2024-03-02T00:00:10;6.47;;;4.00;;
52894;SDS011;38759;53.396;6.722;2024-03-02T00:02:41;5.43;;;3.45;;
52894;SDS011;38759;53.396;6.722;2024-03-02T00:05:11;5.75;;;4.07;;
52894;SDS011;38759;53.396;6.722;2024-03-02T00:07:41;7.13;;;4.15;;
52894;SDS011;38759;53.396;6.722;2024-03-02T00:10:14;6.38;;;3.53;;
52894;SDS011;38759;53.396;6.722;2024-03-02T00:12:46;5.97;;;3.63;;
52894;SDS011;38759;53.396;6.722;2024-03-02T00:15:36;5.63;;;3.97;;
52894;SDS011;38759;53.396;6.722;2024-03-02T00:18:06;6.10;;;4.00;;
52894;SDS011;38759;53.396;6.722;2024-03-02T00:20:32;7.28;;;3.80;;
52894;SDS011;38759;53.396;6.722;2024-03-02T00:23:16;5.90;;;4.18;;
52894;SDS011;38759;53.396;6.722;2024-03-02T00:28:30;6.43;;;4.22;;
52894;SDS011;38759;53.396;6.722;2024-03-02T00:31:05;7.55;;;4.60;;
52894;SDS011;38759;53.396;6.722;2024-03-02T00:33:33;7.78;;;4.50;;
52894;SDS011;38759;53.396;6.722;2024-03-02T00:36:05;8.98;;;5.35;;
52894;SDS011;38759;53.396;6.722;2024-03-02T00:38:32;8.55;;;5.35;;
52894;SDS011;38759;53.396;6.722;2024-03-02T00:40:59;9.10;;;5.70;;
52894;SDS011;38759;53.396;6.722;2024-03-02T00:46:22;9.50;;;5.90;;
52894;SDS011;38759;53.396;6.722;2024-03-02T00:51:26;9.70;;;6.15;;
52894;SDS011;38759;53.396;6.722;2024-03-02T00:53:54;10.93;;;6.25;;
52894;SDS011;38759;53.396;6.722;2024-03-02T00:56:24;11.10;;;6.13;;
52894;SDS011;38759;53.396;6.722;2024-03-02T00:58:51;10.05;;;6.10;;
52894;SDS011;38759;53.396;6.722;2024-03-02T01:01:17;10.05;;;6.60;;
52894;SDS011;38759;53.396;6.722;2024-03-02T01:03:44;9.38;;;5.82;;
52894;SDS011;38759;53.396;6.722;2024-03-02T01:06:10;8.23;;;5.65;;
52894;SDS011;38759;53.396;6.722;2024-03-02T01:08:36;9.98;;;6.10;;
52894;SDS011;38759;53.396;6.722;2024-03-02T01:11:03;11.07;;;6.63;;
52894;SDS011;38759;53.396;6.722;2024-03-02T01:13:30;8.48;;;6.30;;
52894;SDS011;38759;53.396;6.722;2024-03-02T01:15:56;11.02;;;6.43;;
52894;SDS011;38759;53.396;6.722;2024-03-02T01:18:21;11.13;;;6.15;;
52894;SDS011;38759;53.396;6.722;2024-03-02T01:20:47;9.48;;;6.10;;
52894;SDS011;38759;53.396;6.722;2024-03-02T01:23:16;9.00;;;5.50;;
52894;SDS011;38759;53.396;6.722;2024-03-02T01:25:45;10.02;;;6.10;;
52894;SDS011;38759;53.396;6.722;2024-03-02T01:28:12;10.95;;;6.88;;
52894;SDS011;38759;53.396;6.722;2024-03-02T01:30:38;8.68;;;6.13;;
52894;SDS011;38759;53.396;6.722;2024-03-02T01:33:04;10.05;;;5.63;;
52894;SDS011;38759;53.396;6.722;2024-03-02T01:35:30;8.02;;;5.30;;
52894;SDS011;38759;53.396;6.722;2024-03-02T01:37:56;8.73;;;5.88;;
52894;SDS011;38759;53.396;6.722;2024-03-02T01:40:22;11.98;;;6.15;;
52894;SDS011;38759;53.396;6.722;2024-03-02T01:42:51;9.70;;;5.88;;
52894;SDS011;38759;53.396;6.722;2024-03-02T01:45:18;8.07;;;5.45;;
52894;SDS011;38759;53.396;6.722;2024-03-02T01:47:43;9.10;;;6.03;;
52894;SDS011;38759;53.396;6.722;2024-03-02T01:50:10;8.30;;;5.47;;
52894;SDS011;38759;53.396;6.722;2024-03-02T01:52:36;12.10;;;6.22;;
52894;SDS011;38759;53.396;6.722;2024-03-02T01:55:03;8.38;;;5.72;;
52894;SDS011;38759;53.396;6.722;2024-03-02T01:57:29;9.10;;;5.93;;
52894;SDS011;38759;53.396;6.722;2024-03-02T01:59:55;9.13;;;6.00;;
52894;SDS011;38759;53.396;6.722;2024-03-02T02:02:21;10.02;;;5.88;;
52894;SDS011;38759;53.396;6.722;2024-03-02T02:04:47;8.52;;;5.50;;
52894;SDS011;38759;53.396;6.722;2024-03-02T02:07:13;9.95;;;6.13;;
52894;SDS011;38759;53.396;6.722;2024-03-02T02:09:42;8.00;;;5.70;;
52894;SDS011;38759;53.396;6.722;2024-03-02T02:12:09;8.85;;;5.90;;
52894;SDS011;38759;53.396;6.722;2024-03-02T02:14:35;9.18;;;5.95;;
52894;SDS011;38759;53.396;6.722;2024-03-02T02:17:01;8.35;;;5.72;;
52894;SDS011;38759;53.396;6.722;2024-03-02T02:19:27;7.32;;;5.30;;
52894;SDS011;38759;53.396;6.722;2024-03-02T02:21:53;11.88;;;6.18;;
52894;SDS011;38759;53.396;6.722;2024-03-02T02:24:19;10.27;;;6.20;;
52894;SDS011;38759;53.396;6.722;2024-03-02T02:26:45;9.77;;;6.10;;
52894;SDS011;38759;53.396;6.722;2024-03-02T02:29:10;9.02;;;5.47;;
52894;SDS011;38759;53.396;6.722;2024-03-02T02:31:40;8.60;;;5.55;;
52894;SDS011;38759;53.396;6.722;2024-03-02T02:34:06;8.70;;;5.43;;
52894;SDS011;38759;53.396;6.722;2024-03-02T02:36:32;9.05;;;5.25;;
52894;SDS011;38759;53.396;6.722;2024-03-02T02:39:02;8.52;;;5.32;;
52894;SDS011;38759;53.396;6.722;2024-03-02T02:41:29;7.40;;;4.90;;
52894;SDS011;38759;53.396;6.722;2024-03-02T02:43:55;7.82;;;4.93;;
52894;SDS011;38759;53.396;6.722;2024-03-02T02:46:21;9.23;;;5.10;;
52894;SDS011;38759;53.396;6.722;2024-03-02T02:48:47;6.05;;;4.72;;
52894;SDS011;38759;53.396;6.722;2024-03-02T02:51:12;7.28;;;4.68;;
52894;SDS011;38759;53.396;6.722;2024-03-02T02:53:38;6.78;;;4.80;;
52894;SDS011;38759;53.396;6.722;2024-03-02T02:56:06;5.78;;;4.43;;
52894;SDS011;38759;53.396;6.722;2024-03-02T02:58:32;5.82;;;4.30;;
52894;SDS011;38759;53.396;6.722;2024-03-02T03:00:58;7.70;;;4.32;;
52894;SDS011;38759;53.396;6.722;2024-03-02T03:03:24;8.50;;;4.40;;
52894;SDS011;38759;53.396;6.722;2024-03-02T03:05:49;5.70;;;4.30;;
52894;SDS011;38759;53.396;6.722;2024-03-02T03:08:15;6.65;;;4.38;;
52894;SDS011;38759;53.396;6.722;2024-03-02T03:10:41;6.93;;;3.90;;
52894;SDS011;38759;53.396;6.722;2024-03-02T03:13:07;6.80;;;4.03;;
52894;SDS011;38759;53.396;6.722;2024-03-02T03:15:37;5.95;;;4.05;;
52894;SDS011;38759;53.396;6.722;2024-03-02T03:18:03;5.28;;;3.95;;
52894;SDS011;38759;53.396;6.722;2024-03-02T03:20:29;6.03;;;3.92;;
52894;SDS011;38759;53.396;6.722;2024-03-02T03:22:56;7.35;;;4.13;;
52894;SDS011;38759;53.396;6.722;2024-03-02T03:25:22;6.60;;;4.03;;
52894;SDS011;38759;53.396;6.722;2024-03-02T03:27:47;5.50;;;4.00;;
52894;SDS011;38759;53.396;6.722;2024-03-02T03:30:13;8.50;;;4.18;;
52894;SDS011;38759;53.396;6.722;2024-03-02T03:32:39;5.95;;;4.07;;
52894;SDS011;38759;53.396;6.722;2024-03-02T03:35:05;5.65;;;3.25;;
52894;SDS011;38759;53.396;6.722;2024-03-02T03:37:32;6.35;;;3.80;;
52894;SDS011;38759;53.396;6.722;2024-03-02T03:40:01;7.70;;;3.92;;
52894;SDS011;38759;53.396;6.722;2024-03-02T03:42:28;5.50;;;3.70;;
52894;SDS011;38759;53.396;6.722;2024-03-02T03:44:53;7.10;;;3.50;;
52894;SDS011;38759;53.396;6.722;2024-03-02T03:47:19;5.45;;;3.60;;
52894;SDS011;38759;53.396;6.722;2024-03-02T03:49:48;9.23;;;4.15;;
52894;SDS011;38759;53.396;6.722;2024-03-02T03:52:13;9.70;;;3.80;;
52894;SDS011;38759;53.396;6.722;2024-03-02T03:54:39;6.47;;;4.10;;
52894;SDS011;38759;53.396;6.722;2024-03-02T03:57:04;11.23;;;6.32;;
52894;SDS011;38759;53.396;6.722;2024-03-02T03:59:30;109.55;;;37.22;;
52894;SDS011;38759;53.396;6.722;2024-03-02T04:01:56;103.93;;;34.63;;
52894;SDS011;38759;53.396;6.722;2024-03-02T04:04:22;11.75;;;6.05;;
52894;SDS011;38759;53.396;6.722;2024-03-02T04:06:47;6.93;;;4.35;;
52894;SDS011;38759;53.396;6.722;2024-03-02T04:09:13;7.03;;;4.22;;
52894;SDS011;38759;53.396;6.722;2024-03-02T04:11:39;5.25;;;3.67;;
52894;SDS011;38759;53.396;6.722;2024-03-02T04:14:04;5.53;;;4.00;;
52894;SDS011;38759;53.396;6.722;2024-03-02T04:16:31;6.38;;;3.67;;
52894;SDS011;38759;53.396;6.722;2024-03-02T04:18:57;7.18;;;3.97;;
52894;SDS011;38759;53.396;6.722;2024-03-02T04:21:22;5.13;;;3.85;;
52894;SDS011;38759;53.396;6.722;2024-03-02T04:23:48;7.20;;;4.50;;
52894;SDS011;38759;53.396;6.722;2024-03-02T04:26:14;9.40;;;4.35;;
52894;SDS011;38759;53.396;6.722;2024-03-02T04:28:40;7.78;;;4.28;;
52894;SDS011;38759;53.396;6.722;2024-03-02T04:31:05;7.82;;;4.35;;
52894;SDS011;38759;53.396;6.722;2024-03-02T04:33:31;6.07;;;4.30;;
52894;SDS011;38759;53.396;6.722;2024-03-02T04:35:57;10.32;;;4.03;;
52894;SDS011;38759;53.396;6.722;2024-03-02T04:38:22;9.38;;;5.28;;
52894;SDS011;38759;53.396;6.722;2024-03-02T04:40:48;8.38;;;4.63;;
52894;SDS011;38759;53.396;6.722;2024-03-02T04:43:14;10.82;;;4.32;;
52894;SDS011;38759;53.396;6.722;2024-03-02T04:45:41;5.35;;;3.95;;
52894;SDS011;38759;53.396;6.722;2024-03-02T04:48:07;7.38;;;4.25;;
52894;SDS011;38759;53.396;6.722;2024-03-02T04:50:33;10.55;;;4.15;;
52894;SDS011;38759;53.396;6.722;2024-03-02T04:52:59;6.32;;;3.50;;
52894;SDS011;38759;53.396;6.722;2024-03-02T04:55:25;8.35;;;3.97;;
52894;SDS011;38759;53.396;6.722;2024-03-02T04:57:53;8.32;;;3.83;;
52894;SDS011;38759;53.396;6.722;2024-03-02T05:00:20;7.90;;;3.75;;
52894;SDS011;38759;53.396;6.722;2024-03-02T05:02:46;4.63;;;3.65;;
52894;SDS011;38759;53.396;6.722;2024-03-02T05:05:11;7.60;;;4.20;;
52894;SDS011;38759;53.396;6.722;2024-03-02T05:07:37;12.45;;;4.72;;
52894;SDS011;38759;53.396;6.722;2024-03-02T05:10:03;6.65;;;3.88;;
52894;SDS011;38759;53.396;6.722;2024-03-02T05:12:29;5.32;;;3.58;;
52894;SDS011;38759;53.396;6.722;2024-03-02T05:14:55;7.50;;;3.80;;
52894;SDS011;38759;53.396;6.722;2024-03-02T05:17:21;5.40;;;3.35;;
52894;SDS011;38759;53.396;6.722;2024-03-02T05:19:46;4.90;;;3.35;;
52894;SDS011;38759;53.396;6.722;2024-03-02T05:22:12;6.53;;;3.70;;
52894;SDS011;38759;53.396;6.722;2024-03-02T05:24:38;5.45;;;3.83;;
52894;SDS011;38759;53.396;6.722;2024-03-02T05:27:03;6.40;;;3.70;;
52894;SDS011;38759;53.396;6.722;2024-03-02T05:29:29;9.38;;;4.10;;
52894;SDS011;38759;53.396;6.722;2024-03-02T05:31:55;8.32;;;4.05;;
52894;SDS011;38759;53.396;6.722;2024-03-02T05:34:20;6.18;;;3.72;;
52894;SDS011;38759;53.396;6.722;2024-03-02T05:36:46;8.90;;;4.13;;
52894;SDS011;38759;53.396;6.722;2024-03-02T05:39:12;9.18;;;4.30;;
52894;SDS011;38759;53.396;6.722;2024-03-02T05:41:37;6.50;;;4.32;;
52894;SDS011;38759;53.396;6.722;2024-03-02T05:44:03;8.95;;;4.90;;
52894;SDS011;38759;53.396;6.722;2024-03-02T05:46:29;8.98;;;4.60;;
52894;SDS011;38759;53.396;6.722;2024-03-02T05:48:55;8.73;;;5.28;;
52894;SDS011;38759;53.396;6.722;2024-03-02T05:51:21;10.32;;;5.60;;
52894;SDS011;38759;53.396;6.722;2024-03-02T05:53:46;8.43;;;5.22;;
52894;SDS011;38759;53.396;6.722;2024-03-02T05:56:12;8.93;;;5.63;;
52894;SDS011;38759;53.396;6.722;2024-03-02T05:58:38;10.45;;;5.05;;
52894;SDS011;38759;53.396;6.722;2024-03-02T06:01:22;10.30;;;5.70;;
52894;SDS011;38759;53.396;6.722;2024-03-02T06:03:53;11.23;;;6.15;;
52894;SDS011;38759;53.396;6.722;2024-03-02T06:06:25;9.52;;;5.40;;
52894;SDS011;38759;53.396;6.722;2024-03-02T06:08:51;11.00;;;5.65;;
52894;SDS011;38759;53.396;6.722;2024-03-02T06:11:19;11.43;;;5.40;;
52894;SDS011;38759;53.396;6.722;2024-03-02T06:13:45;9.23;;;4.90;;
52894;SDS011;38759;53.396;6.722;2024-03-02T06:16:10;8.95;;;5.20;;
52894;SDS011;38759;53.396;6.722;2024-03-02T06:18:36;9.52;;;4.82;;
52894;SDS011;38759;53.396;6.722;2024-03-02T06:21:02;15.63;;;5.95;;
52894;SDS011;38759;53.396;6.722;2024-03-02T06:23:28;12.05;;;6.03;;
52894;SDS011;38759;53.396;6.722;2024-03-02T06:25:54;27.58;;;10.55;;
52894;SDS011;38759;53.396;6.722;2024-03-02T06:28:19;8.05;;;4.30;;
52894;SDS011;38759;53.396;6.722;2024-03-02T06:30:45;5.75;;;3.80;;
52894;SDS011;38759;53.396;6.722;2024-03-02T06:33:11;5.60;;;3.92;;
52894;SDS011;38759;53.396;6.722;2024-03-02T06:35:37;7.03;;;3.88;;
52894;SDS011;38759;53.396;6.722;2024-03-02T06:38:04;4.47;;;3.40;;
52894;SDS011;38759;53.396;6.722;2024-03-02T06:40:29;4.55;;;3.65;;
52894;SDS011;38759;53.396;6.722;2024-03-02T06:42:55;4.65;;;3.42;;
52894;SDS011;38759;53.396;6.722;2024-03-02T06:45:24;7.32;;;3.65;;
52894;SDS011;38759;53.396;6.722;2024-03-02T06:47:49;5.30;;;3.55;;
52894;SDS011;38759;53.396;6.722;2024-03-02T06:50:15;3.78;;;3.17;;
52894;SDS011;38759;53.396;6.722;2024-03-02T06:52:41;10.38;;;3.25;;
52894;SDS011;38759;53.396;6.722;2024-03-02T06:55:07;5.15;;;3.65;;
52894;SDS011;38759;53.396;6.722;2024-03-02T06:57:33;8.30;;;3.42;;
52894;SDS011;38759;53.396;6.722;2024-03-02T06:59:58;6.90;;;3.40;;
52894;SDS011;38759;53.396;6.722;2024-03-02T07:02:24;6.80;;;3.70;;
52894;SDS011;38759;53.396;6.722;2024-03-02T07:04:53;5.82;;;3.40;;
52894;SDS011;38759;53.396;6.722;2024-03-02T07:07:19;3.88;;;3.10;;
52894;SDS011;38759;53.396;6.722;2024-03-02T07:09:44;6.10;;;3.55;;
52894;SDS011;38759;53.396;6.722;2024-03-02T07:12:10;5.32;;;3.78;;
52894;SDS011;38759;53.396;6.722;2024-03-02T07:14:36;7.15;;;3.95;;
52894;SDS011;38759;53.396;6.722;2024-03-02T07:17:20;6.25;;;3.70;;
52894;SDS011;38759;53.396;6.722;2024-03-02T07:19:49;7.07;;;3.83;;
52894;SDS011;38759;53.396;6.722;2024-03-02T07:22:14;5.10;;;3.22;;
52894;SDS011;38759;53.396;6.722;2024-03-02T07:24:43;5.07;;;3.63;;
52894;SDS011;38759;53.396;6.722;2024-03-02T07:27:11;5.07;;;3.03;;
52894;SDS011;38759;53.396;6.722;2024-03-02T07:29:37;5.35;;;3.45;;
52894;SDS011;38759;53.396;6.722;2024-03-02T07:32:03;5.90;;;3.47;;
52894;SDS011;38759;53.396;6.722;2024-03-02T07:34:29;6.30;;;3.30;;
52894;SDS011;38759;53.396;6.722;2024-03-02T07:36:55;5.43;;;3.55;;
52894;SDS011;38759;53.396;6.722;2024-03-02T07:39:24;3.83;;;3.20;;
52894;SDS011;38759;53.396;6.722;2024-03-02T07:41:50;4.45;;;3.63;;
52894;SDS011;38759;53.396;6.722;2024-03-02T07:44:16;7.22;;;3.38;;
52894;SDS011;38759;53.396;6.722;2024-03-02T07:46:44;4.05;;;3.30;;
52894;SDS011;38759;53.396;6.722;2024-03-02T07:49:15;7.65;;;3.50;;
52894;SDS011;38759;53.396;6.722;2024-03-02T07:51:42;5.15;;;3.40;;
52894;SDS011;38759;53.396;6.722;2024-03-02T07:54:08;5.88;;;3.25;;
52894;SDS011;38759;53.396;6.722;2024-03-02T07:56:34;5.13;;;3.70;;
52894;SDS011;38759;53.396;6.722;2024-03-02T07:59:00;8.32;;;3.70;;
52894;SDS011;38759;53.396;6.722;2024-03-02T08:01:30;7.40;;;3.58;;
52894;SDS011;38759;53.396;6.722;2024-03-02T08:03:57;4.82;;;3.28;;
52894;SDS011;38759;53.396;6.722;2024-03-02T08:06:28;6.18;;;3.53;;
52894;SDS011;38759;53.396;6.722;2024-03-02T08:08:55;6.05;;;3.70;;
52894;SDS011;38759;53.396;6.722;2024-03-02T08:11:24;7.72;;;3.58;;
52894;SDS011;38759;53.396;6.722;2024-03-02T08:13:50;6.13;;;3.58;;
52894;SDS011;38759;53.396;6.722;2024-03-02T08:16:17;9.25;;;3.78;;
52894;SDS011;38759;53.396;6.722;2024-03-02T08:18:46;9.70;;;3.60;;
52894;SDS011;38759;53.396;6.722;2024-03-02T08:21:13;5.70;;;3.45;;
52894;SDS011;38759;53.396;6.722;2024-03-02T08:23:40;5.72;;;3.83;;
52894;SDS011;38759;53.396;6.722;2024-03-02T08:26:07;5.80;;;3.83;;
52894;SDS011;38759;53.396;6.722;2024-03-02T08:28:36;5.07;;;3.53;;
52894;SDS011;38759;53.396;6.722;2024-03-02T08:31:08;6.40;;;3.83;;
52894;SDS011;38759;53.396;6.722;2024-03-02T08:33:34;6.60;;;3.63;;
52894;SDS011;38759;53.396;6.722;2024-03-02T08:36:00;7.38;;;3.30;;
52894;SDS011;38759;53.396;6.722;2024-03-02T08:38:26;5.93;;;2.92;;
52894;SDS011;38759;53.396;6.722;2024-03-02T08:40:51;4.85;;;2.90;;
52894;SDS011;38759;53.396;6.722;2024-03-02T08:43:17;4.32;;;2.75;;
52894;SDS011;38759;53.396;6.722;2024-03-02T08:45:43;4.88;;;2.50;;
52894;SDS011;38759;53.396;6.722;2024-03-02T08:48:09;3.95;;;2.25;;
52894;SDS011;38759;53.396;6.722;2024-03-02T08:50:35;5.15;;;2.22;;
52894;SDS011;38759;53.396;6.722;2024-03-02T08:53:01;2.78;;;1.90;;
52894;SDS011;38759;53.396;6.722;2024-03-02T08:55:28;2.75;;;1.90;;
52894;SDS011;38759;53.396;6.722;2024-03-02T08:57:54;3.75;;;2.00;;
52894;SDS011;38759;53.396;6.722;2024-03-02T09:00:21;2.17;;;1.65;;
52894;SDS011;38759;53.396;6.722;2024-03-02T09:02:47;2.08;;;1.50;;
52894;SDS011;38759;53.396;6.722;2024-03-02T09:05:13;2.25;;;1.58;;
52894;SDS011;38759;53.396;6.722;2024-03-02T09:07:38;1.63;;;1.50;;
52894;SDS011;38759;53.396;6.722;2024-03-02T09:10:05;3.38;;;1.70;;
52894;SDS011;38759;53.396;6.722;2024-03-02T09:12:32;2.33;;;1.50;;
52894;SDS011;38759;53.396;6.722;2024-03-02T09:14:58;3.17;;;1.92;;
52894;SDS011;38759;53.396;6.722;2024-03-02T09:17:24;1.67;;;1.50;;
52894;SDS011;38759;53.396;6.722;2024-03-02T09:19:50;38.90;;;12.70;;
52894;SDS011;38759;53.396;6.722;2024-03-02T09:22:18;1.63;;;1.25;;
52894;SDS011;38759;53.396;6.722;2024-03-02T09:24:44;3.58;;;1.20;;
52894;SDS011;38759;53.396;6.722;2024-03-02T09:27:10;2.40;;;1.38;;
52894;SDS011;38759;53.396;6.722;2024-03-02T09:29:36;2.15;;;1.35;;
52894;SDS011;38759;53.396;6.722;2024-03-02T09:32:02;1.20;;;1.10;;
52894;SDS011;38759;53.396;6.722;2024-03-02T09:34:28;1.95;;;1.30;;
52894;SDS011;38759;53.396;6.722;2024-03-02T09:36:53;2.40;;;1.20;;
52894;SDS011;38759;53.396;6.722;2024-03-02T09:39:19;2.35;;;1.35;;
52894;SDS011;38759;53.396;6.722;2024-03-02T09:41:45;3.03;;;1.13;;
52894;SDS011;38759;53.396;6.722;2024-03-02T09:44:12;2.03;;;1.35;;
52894;SDS011;38759;53.396;6.722;2024-03-02T09:46:37;5.38;;;1.67;;
52894;SDS011;38759;53.396;6.722;2024-03-02T09:49:03;3.80;;;1.40;;
52894;SDS011;38759;53.396;6.722;2024-03-02T09:51:29;2.10;;;1.20;;
52894;SDS011;38759;53.396;6.722;2024-03-02T09:53:56;2.60;;;1.25;;
52894;SDS011;38759;53.396;6.722;2024-03-02T09:56:22;2.92;;;1.17;;
52894;SDS011;38759;53.396;6.722;2024-03-02T09:58:48;3.10;;;1.55;;
52894;SDS011;38759;53.396;6.722;2024-03-02T10:01:13;2.95;;;1.48;;
52894;SDS011;38759;53.396;6.722;2024-03-02T10:03:39;2.83;;;1.30;;
52894;SDS011;38759;53.396;6.722;2024-03-02T10:06:24;2.63;;;1.30;;
52894;SDS011;38759;53.396;6.722;2024-03-02T10:08:51;2.60;;;1.38;;
52894;SDS011;38759;53.396;6.722;2024-03-02T10:16:42;1.50;;;1.20;;
52894;SDS011;38759;53.396;6.722;2024-03-02T10:21:48;2.22;;;1.13;;
52894;SDS011;38759;53.396;6.722;2024-03-02T10:24:21;2.38;;;1.27;;
52894;SDS011;38759;53.396;6.722;2024-03-02T10:26:48;1.63;;;1.00;;
52894;SDS011;38759;53.396;6.722;2024-03-02T10:29:14;4.85;;;1.13;;
52894;SDS011;38759;53.396;6.722;2024-03-02T10:31:41;3.50;;;1.25;;
52894;SDS011;38759;53.396;6.722;2024-03-02T10:34:08;3.78;;;1.30;;
52894;SDS011;38759;53.396;6.722;2024-03-02T10:36:35;3.42;;;1.25;;
52894;SDS011;38759;53.396;6.722;2024-03-02T10:39:05;2.08;;;1.20;;
52894;SDS011;38759;53.396;6.722;2024-03-02T10:41:32;1.90;;;0.90;;
52894;SDS011;38759;53.396;6.722;2024-03-02T10:43:59;1.90;;;1.10;;
52894;SDS011;38759;53.396;6.722;2024-03-02T10:46:28;3.88;;;0.93;;
52894;SDS011;38759;53.396;6.722;2024-03-02T10:48:58;3.45;;;0.80;;
52894;SDS011;38759;53.396;6.722;2024-03-02T10:51:26;4.68;;;1.40;;
52894;SDS011;38759;53.396;6.722;2024-03-02T10:53:54;3.47;;;1.20;;
52894;SDS011;38759;53.396;6.722;2024-03-02T10:56:53;2.85;;;1.15;;
52894;SDS011;38759;53.396;6.722;2024-03-02T10:59:24;1.50;;;0.95;;
52894;SDS011;38759;53.396;6.722;2024-03-02T11:01:59;2.42;;;1.25;;
52894;SDS011;38759;53.396;6.722;2024-03-02T11:04:26;4.03;;;1.30;;
52894;SDS011;38759;53.396;6.722;2024-03-02T11:07:00;3.38;;;1.65;;
52894;SDS011;38759;53.396;6.722;2024-03-02T11:14:59;2.25;;;1.35;;
52894;SDS011;38759;53.396;6.722;2024-03-02T11:17:25;7.03;;;1.83;;
52894;SDS011;38759;53.396;6.722;2024-03-02T11:19:52;2.85;;;1.42;;
52894;SDS011;38759;53.396;6.722;2024-03-02T11:22:18;5.03;;;1.30;;
52894;SDS011;38759;53.396;6.722;2024-03-02T11:24:48;3.33;;;1.45;;
52894;SDS011;38759;53.396;6.722;2024-03-02T11:27:20;2.55;;;1.65;;
52894;SDS011;38759;53.396;6.722;2024-03-02T11:30:14;6.38;;;1.40;;
52894;SDS011;38759;53.396;6.722;2024-03-02T11:33:01;2.22;;;0.90;;
52894;SDS011;38759;53.396;6.722;2024-03-02T11:35:32;1.33;;;1.10;;
52894;SDS011;38759;53.396;6.722;2024-03-02T11:38:02;3.03;;;1.20;;
52894;SDS011;38759;53.396;6.722;2024-03-02T11:40:29;3.63;;;1.20;;
52894;SDS011;38759;53.396;6.722;2024-03-02T11:42:55;5.10;;;1.25;;
52894;SDS011;38759;53.396;6.722;2024-03-02T11:45:22;2.75;;;1.25;;
52894;SDS011;38759;53.396;6.722;2024-03-02T11:47:52;2.90;;;1.48;;
52894;SDS011;38759;53.396;6.722;2024-03-02T11:52:55;4.13;;;1.20;;
52894;SDS011;38759;53.396;6.722;2024-03-02T11:55:22;4.88;;;1.42;;
52894;SDS011;38759;53.396;6.722;2024-03-02T11:57:50;4.55;;;1.40;;
52894;SDS011;38759;53.396;6.722;2024-03-02T12:00:18;3.42;;;1.80;;
52894;SDS011;38759;53.396;6.722;2024-03-02T12:02:45;2.72;;;1.55;;
52894;SDS011;38759;53.396;6.722;2024-03-02T12:05:14;4.20;;;3.03;;
52894;SDS011;38759;53.396;6.722;2024-03-02T12:07:41;3.55;;;1.30;;
52894;SDS011;38759;53.396;6.722;2024-03-02T12:10:08;2.65;;;1.40;;
52894;SDS011;38759;53.396;6.722;2024-03-02T12:12:34;3.83;;;1.45;;
52894;SDS011;38759;53.396;6.722;2024-03-02T12:15:00;4.22;;;1.40;;
52894;SDS011;38759;53.396;6.722;2024-03-02T12:17:28;4.40;;;1.50;;
52894;SDS011;38759;53.396;6.722;2024-03-02T12:19:54;3.58;;;1.70;;
52894;SDS011;38759;53.396;6.722;2024-03-02T12:22:20;2.42;;;1.65;;
52894;SDS011;38759;53.396;6.722;2024-03-02T12:24:46;3.67;;;1.90;;
52894;SDS011;38759;53.396;6.722;2024-03-02T12:27:12;3.95;;;1.83;;
52894;SDS011;38759;53.396;6.722;2024-03-02T12:29:40;5.07;;;2.10;;
52894;SDS011;38759;53.396;6.722;2024-03-02T12:32:06;4.75;;;2.15;;
52894;SDS011;38759;53.396;6.722;2024-03-02T12:34:32;3.45;;;1.98;;
52894;SDS011;38759;53.396;6.722;2024-03-02T12:36:58;2.92;;;1.92;;
52894;SDS011;38759;53.396;6.722;2024-03-02T12:39:26;3.65;;;2.03;;
52894;SDS011;38759;53.396;6.722;2024-03-02T12:41:52;3.97;;;1.90;;
52894;SDS011;38759;53.396;6.722;2024-03-02T12:44:19;3.50;;;2.00;;
52894;SDS011;38759;53.396;6.722;2024-03-02T12:46:45;4.57;;;2.35;;
52894;SDS011;38759;53.396;6.722;2024-03-02T12:49:12;4.82;;;2.03;;
52894;SDS011;38759;53.396;6.722;2024-03-02T12:51:39;3.22;;;1.98;;
52894;SDS011;38759;53.396;6.722;2024-03-02T12:54:09;2.53;;;2.03;;
52894;SDS011;38759;53.396;6.722;2024-03-02T12:56:36;3.60;;;1.98;;
52894;SDS011;38759;53.396;6.722;2024-03-02T12:59:03;4.72;;;2.22;;
52894;SDS011;38759;53.396;6.722;2024-03-02T13:01:29;4.75;;;2.40;;
52894;SDS011;38759;53.396;6.722;2024-03-02T13:03:57;4.13;;;2.03;;
52894;SDS011;38759;53.396;6.722;2024-03-02T13:06:24;4.78;;;2.22;;
52894;SDS011;38759;53.396;6.722;2024-03-02T13:08:53;8.65;;;2.40;;
52894;SDS011;38759;53.396;6.722;2024-03-02T13:11:20;5.03;;;2.30;;
52894;SDS011;38759;53.396;6.722;2024-03-02T13:13:48;3.83;;;2.20;;
52894;SDS011;38759;53.396;6.722;2024-03-02T13:16:14;4.22;;;2.60;;
52894;SDS011;38759;53.396;6.722;2024-03-02T13:18:41;4.55;;;2.65;;
52894;SDS011;38759;53.396;6.722;2024-03-02T13:21:10;4.97;;;2.95;;
52894;SDS011;38759;53.396;6.722;2024-03-02T13:23:36;6.18;;;2.90;;
52894;SDS011;38759;53.396;6.722;2024-03-02T13:26:02;4.75;;;2.70;;
52894;SDS011;38759;53.396;6.722;2024-03-02T13:28:27;4.55;;;2.95;;
52894;SDS011;38759;53.396;6.722;2024-03-02T13:30:53;4.53;;;2.80;;
52894;SDS011;38759;53.396;6.722;2024-03-02T13:33:19;3.50;;;2.78;;
52894;SDS011;38759;53.396;6.722;2024-03-02T13:35:48;5.50;;;2.70;;
52894;SDS011;38759;53.396;6.722;2024-03-02T13:38:16;3.47;;;2.50;;
52894;SDS011;38759;53.396;6.722;2024-03-02T13:40:42;5.80;;;2.90;;
52894;SDS011;38759;53.396;6.722;2024-03-02T13:43:08;4.00;;;3.08;;
52894;SDS011;38759;53.396;6.722;2024-03-02T13:45:34;4.43;;;2.70;;
52894;SDS011;38759;53.396;6.722;2024-03-02T13:48:01;5.45;;;2.70;;
52894;SDS011;38759;53.396;6.722;2024-03-02T13:50:28;3.13;;;2.60;;
52894;SDS011;38759;53.396;6.722;2024-03-02T13:52:55;4.53;;;2.50;;
52894;SDS011;38759;53.396;6.722;2024-03-02T14:07:42;5.50;;;2.70;;
52894;SDS011;38759;53.396;6.722;2024-03-02T14:10:09;5.88;;;2.10;;
52894;SDS011;38759;53.396;6.722;2024-03-02T14:12:36;3.47;;;2.30;;
52894;SDS011;38759;53.396;6.722;2024-03-02T14:15:02;3.88;;;2.30;;
52894;SDS011;38759;53.396;6.722;2024-03-02T14:17:28;4.97;;;2.38;;
52894;SDS011;38759;53.396;6.722;2024-03-02T14:19:56;3.75;;;2.40;;
52894;SDS011;38759;53.396;6.722;2024-03-02T14:22:23;4.40;;;2.28;;
52894;SDS011;38759;53.396;6.722;2024-03-02T14:24:49;5.05;;;2.40;;
52894;SDS011;38759;53.396;6.722;2024-03-02T14:27:15;7.55;;;2.17;;
52894;SDS011;38759;53.396;6.722;2024-03-02T14:29:44;5.88;;;2.45;;
52894;SDS011;38759;53.396;6.722;2024-03-02T14:32:10;3.75;;;2.10;;
52894;SDS011;38759;53.396;6.722;2024-03-02T14:34:35;2.55;;;2.20;;
52894;SDS011;38759;53.396;6.722;2024-03-02T14:37:01;10.35;;;2.50;;
52894;SDS011;38759;53.396;6.722;2024-03-02T14:39:28;3.40;;;2.38;;
52894;SDS011;38759;53.396;6.722;2024-03-02T14:41:55;5.38;;;2.30;;
52894;SDS011;38759;53.396;6.722;2024-03-02T14:44:21;3.42;;;2.30;;
52894;SDS011;38759;53.396;6.722;2024-03-02T14:46:47;4.97;;;2.70;;
52894;SDS011;38759;53.396;6.722;2024-03-02T14:49:13;2.50;;;2.20;;
52894;SDS011;38759;53.396;6.722;2024-03-02T14:51:39;8.02;;;2.72;;
52894;SDS011;38759;53.396;6.722;2024-03-02T14:54:05;4.45;;;2.72;;
52894;SDS011;38759;53.396;6.722;2024-03-02T14:56:31;4.07;;;2.30;;
52894;SDS011;38759;53.396;6.722;2024-03-02T14:58:56;4.40;;;2.28;;
52894;SDS011;38759;53.396;6.722;2024-03-02T15:01:22;3.85;;;2.53;;
52894;SDS011;38759;53.396;6.722;2024-03-02T15:03:49;3.92;;;2.55;;
52894;SDS011;38759;53.396;6.722;2024-03-02T15:06:16;2.88;;;2.22;;
52894;SDS011;38759;53.396;6.722;2024-03-02T15:08:41;4.95;;;2.28;;
52894;SDS011;38759;53.396;6.722;2024-03-02T15:11:07;6.50;;;2.20;;
52894;SDS011;38759;53.396;6.722;2024-03-02T15:13:34;3.35;;;2.20;;
52894;SDS011;38759;53.396;6.722;2024-03-02T15:15:59;4.15;;;2.50;;
52894;SDS011;38759;53.396;6.722;2024-03-02T15:18:25;3.33;;;2.33;;
52894;SDS011;38759;53.396;6.722;2024-03-02T15:20:52;5.88;;;2.35;;